sensor_id;sensor_type;location;lat;lon;timestamp;temperature;humidity
9847;DHT22;4962;50.084;8.794;2022-08-21T00:01:43;24.30;91.30
9847;DHT22;4962;50.084;8.794;2022-08-21T00:04:11;24.20;91.80
9847;DHT22;4962;50.084;8.794;2022-08-21T00:06:38;24.10;92.20
9847;DHT22;4962;50.084;8.794;2022-08-21T00:09:06;24.00;92.60
9847;DHT22;4962;50.084;8.794;2022-08-21T00:11:35;23.90;92.80
9847;DHT22;4962;50.084;8.794;2022-08-21T00:14:03;23.80;93.10
9847;DHT22;4962;50.084;8.794;2022-08-21T00:16:31;23.80;93.30
9847;DHT22;4962;50.084;8.794;2022-08-21T00:18:59;23.70;93.50
9847;DHT22;4962;50.084;8.794;2022-08-21T00:21:27;23.70;94.20
9847;DHT22;4962;50.084;8.794;2022-08-21T00:23:54;23.70;93.90
9847;DHT22;4962;50.084;8.794;2022-08-21T00:26:21;23.60;94.10
9847;DHT22;4962;50.084;8.794;2022-08-21T00:28:51;23.60;94.30
9847;DHT22;4962;50.084;8.794;2022-08-21T00:31:18;23.50;94.60
9847;DHT22;4962;50.084;8.794;2022-08-21T00:33:45;23.40;95.00
9847;DHT22;4962;50.084;8.794;2022-08-21T00:36:14;23.30;95.40
9847;DHT22;4962;50.084;8.794;2022-08-21T00:38:41;23.20;95.80
9847;DHT22;4962;50.084;8.794;2022-08-21T00:41:10;23.00;96.20
9847;DHT22;4962;50.084;8.794;2022-08-21T00:43:38;22.90;96.60
9847;DHT22;4962;50.084;8.794;2022-08-21T00:46:06;22.80;97.00
9847;DHT22;4962;50.084;8.794;2022-08-21T00:48:34;22.70;97.50
9847;DHT22;4962;50.084;8.794;2022-08-21T00:51:05;22.70;97.90
9847;DHT22;4962;50.084;8.794;2022-08-21T00:53:35;22.60;98.30
9847;DHT22;4962;50.084;8.794;2022-08-21T00:56:05;22.60;98.60
9847;DHT22;4962;50.084;8.794;2022-08-21T00:58:34;22.60;99.10
9847;DHT22;4962;50.084;8.794;2022-08-21T01:01:04;22.60;99.80
9847;DHT22;4962;50.084;8.794;2022-08-21T01:03:31;22.60;99.50
9847;DHT22;4962;50.084;8.794;2022-08-21T01:05:59;22.50;99.70
9847;DHT22;4962;50.084;8.794;2022-08-21T01:08:26;22.50;99.90
9847;DHT22;4962;50.084;8.794;2022-08-21T01:10:57;22.50;99.90
9847;DHT22;4962;50.084;8.794;2022-08-21T01:13:26;22.40;99.90
9847;DHT22;4962;50.084;8.794;2022-08-21T01:15:55;22.40;99.90
9847;DHT22;4962;50.084;8.794;2022-08-21T01:18:23;22.30;99.90
9847;DHT22;4962;50.084;8.794;2022-08-21T01:21:04;22.20;99.90
9847;DHT22;4962;50.084;8.794;2022-08-21T01:23:32;22.10;99.90
9847;DHT22;4962;50.084;8.794;2022-08-21T01:26:01;22.00;99.90
9847;DHT22;4962;50.084;8.794;2022-08-21T01:28:31;21.90;99.90
9847;DHT22;4962;50.084;8.794;2022-08-21T01:31:01;21.80;99.90
9847;DHT22;4962;50.084;8.794;2022-08-21T01:33:29;21.80;99.90
9847;DHT22;4962;50.084;8.794;2022-08-21T01:35:56;21.70;99.90
9847;DHT22;4962;50.084;8.794;2022-08-21T01:38:25;21.70;99.90
9847;DHT22;4962;50.084;8.794;2022-08-21T01:40:52;21.60;99.90
9847;DHT22;4962;50.084;8.794;2022-08-21T01:43:19;21.60;99.90
9847;DHT22;4962;50.084;8.794;2022-08-21T01:45:45;21.60;99.90
9847;DHT22;4962;50.084;8.794;2022-08-21T01:48:12;21.60;99.90
9847;DHT22;4962;50.084;8.794;2022-08-21T01:50:39;21.60;99.90
9847;DHT22;4962;50.084;8.794;2022-08-21T01:53:06;21.50;99.90
9847;DHT22;4962;50.084;8.794;2022-08-21T01:55:34;21.50;99.90
9847;DHT22;4962;50.084;8.794;2022-08-21T01:58:02;21.50;99.90
9847;DHT22;4962;50.084;8.794;2022-08-21T02:00:29;21.50;99.90
9847;DHT22;4962;50.084;8.794;2022-08-21T02:02:55;21.50;99.90
9847;DHT22;4962;50.084;8.794;2022-08-21T02:05:22;21.50;99.90
9847;DHT22;4962;50.084;8.794;2022-08-21T02:07:51;21.40;99.90
9847;DHT22;4962;50.084;8.794;2022-08-21T02:10:21;21.40;99.90
9847;DHT22;4962;50.084;8.794;2022-08-21T02:12:50;21.30;99.90
9847;DHT22;4962;50.084;8.794;2022-08-21T02:15:16;21.30;99.90
9847;DHT22;4962;50.084;8.794;2022-08-21T02:17:46;21.30;99.90
9847;DHT22;4962;50.084;8.794;2022-08-21T02:20:18;21.30;99.90
9847;DHT22;4962;50.084;8.794;2022-08-21T02:22:46;21.30;99.90
9847;DHT22;4962;50.084;8.794;2022-08-21T02:25:13;21.20;99.90
9847;DHT22;4962;50.084;8.794;2022-08-21T02:27:42;21.20;99.90
9847;DHT22;4962;50.084;8.794;2022-08-21T02:30:14;21.10;99.90
9847;DHT22;4962;50.084;8.794;2022-08-21T02:32:41;21.10;99.90
9847;DHT22;4962;50.084;8.794;2022-08-21T02:35:09;21.00;99.90
9847;DHT22;4962;50.084;8.794;2022-08-21T02:37:43;21.00;99.90
9847;DHT22;4962;50.084;8.794;2022-08-21T02:40:11;20.90;99.90
9847;DHT22;4962;50.084;8.794;2022-08-21T02:42:38;20.90;99.90
9847;DHT22;4962;50.084;8.794;2022-08-21T02:45:07;20.90;99.90
9847;DHT22;4962;50.084;8.794;2022-08-21T02:47:35;20.80;99.90
9847;DHT22;4962;50.084;8.794;2022-08-21T02:50:03;20.70;99.90
9847;DHT22;4962;50.084;8.794;2022-08-21T02:52:30;20.70;99.90
9847;DHT22;4962;50.084;8.794;2022-08-21T02:54:58;20.70;99.90
9847;DHT22;4962;50.084;8.794;2022-08-21T02:57:25;20.70;99.90
9847;DHT22;4962;50.084;8.794;2022-08-21T02:59:52;20.70;99.90
9847;DHT22;4962;50.084;8.794;2022-08-21T03:02:19;20.60;99.90
9847;DHT22;4962;50.084;8.794;2022-08-21T03:04:48;20.70;99.90
9847;DHT22;4962;50.084;8.794;2022-08-21T03:07:15;20.60;99.90
9847;DHT22;4962;50.084;8.794;2022-08-21T03:09:41;20.60;99.90
9847;DHT22;4962;50.084;8.794;2022-08-21T03:12:08;20.60;99.90
9847;DHT22;4962;50.084;8.794;2022-08-21T03:14:35;20.50;99.90
9847;DHT22;4962;50.084;8.794;2022-08-21T03:17:03;20.60;99.90
9847;DHT22;4962;50.084;8.794;2022-08-21T03:19:30;20.50;99.90
9847;DHT22;4962;50.084;8.794;2022-08-21T03:21:59;20.50;99.90
9847;DHT22;4962;50.084;8.794;2022-08-21T03:24:26;20.40;99.90
9847;DHT22;4962;50.084;8.794;2022-08-21T03:26:52;20.40;99.90
9847;DHT22;4962;50.084;8.794;2022-08-21T03:29:19;20.40;99.90
9847;DHT22;4962;50.084;8.794;2022-08-21T03:31:46;20.40;99.90
9847;DHT22;4962;50.084;8.794;2022-08-21T03:34:13;20.40;99.90
9847;DHT22;4962;50.084;8.794;2022-08-21T03:36:40;20.40;99.90
9847;DHT22;4962;50.084;8.794;2022-08-21T03:39:09;20.40;99.90
9847;DHT22;4962;50.084;8.794;2022-08-21T03:41:35;20.40;99.90
9847;DHT22;4962;50.084;8.794;2022-08-21T03:44:03;20.40;99.90
9847;DHT22;4962;50.084;8.794;2022-08-21T03:46:29;20.40;99.90
9847;DHT22;4962;50.084;8.794;2022-08-21T03:48:57;20.50;99.90
9847;DHT22;4962;50.084;8.794;2022-08-21T03:51:23;20.50;99.90
9847;DHT22;4962;50.084;8.794;2022-08-21T03:53:51;20.50;99.90
9847;DHT22;4962;50.084;8.794;2022-08-21T03:56:19;20.50;99.90
9847;DHT22;4962;50.084;8.794;2022-08-21T03:58:46;20.50;99.90
9847;DHT22;4962;50.084;8.794;2022-08-21T04:01:13;20.50;99.90
9847;DHT22;4962;50.084;8.794;2022-08-21T04:03:40;20.60;99.90
9847;DHT22;4962;50.084;8.794;2022-08-21T04:06:18;20.60;99.90
9847;DHT22;4962;50.084;8.794;2022-08-21T04:08:45;20.60;99.90
9847;DHT22;4962;50.084;8.794;2022-08-21T04:11:12;20.70;99.90
9847;DHT22;4962;50.084;8.794;2022-08-21T04:13:41;20.80;99.90
9847;DHT22;4962;50.084;8.794;2022-08-21T04:16:08;20.80;99.90
9847;DHT22;4962;50.084;8.794;2022-08-21T04:18:35;20.80;99.90
9847;DHT22;4962;50.084;8.794;2022-08-21T04:21:07;20.70;99.90
9847;DHT22;4962;50.084;8.794;2022-08-21T04:23:39;20.70;99.90
9847;DHT22;4962;50.084;8.794;2022-08-21T04:26:06;20.70;99.90
9847;DHT22;4962;50.084;8.794;2022-08-21T04:28:33;20.80;99.90
9847;DHT22;4962;50.084;8.794;2022-08-21T04:31:02;20.80;99.90
9847;DHT22;4962;50.084;8.794;2022-08-21T04:33:29;20.90;99.90
9847;DHT22;4962;50.084;8.794;2022-08-21T04:35:56;20.90;99.90
9847;DHT22;4962;50.084;8.794;2022-08-21T04:38:23;21.00;99.90
9847;DHT22;4962;50.084;8.794;2022-08-21T04:40:51;21.00;99.90
9847;DHT22;4962;50.084;8.794;2022-08-21T04:43:19;21.10;99.90
9847;DHT22;4962;50.084;8.794;2022-08-21T04:45:49;21.10;99.90
9847;DHT22;4962;50.084;8.794;2022-08-21T04:48:20;21.10;99.90
9847;DHT22;4962;50.084;8.794;2022-08-21T04:50:51;21.20;99.90
9847;DHT22;4962;50.084;8.794;2022-08-21T04:53:22;21.20;99.90
9847;DHT22;4962;50.084;8.794;2022-08-21T04:55:49;21.30;99.90
9847;DHT22;4962;50.084;8.794;2022-08-21T04:58:20;21.40;99.90
9847;DHT22;4962;50.084;8.794;2022-08-21T05:00:49;21.50;99.90
9847;DHT22;4962;50.084;8.794;2022-08-21T05:03:19;21.70;99.90
9847;DHT22;4962;50.084;8.794;2022-08-21T05:05:47;21.80;99.90
9847;DHT22;4962;50.084;8.794;2022-08-21T05:08:16;22.00;99.90
9847;DHT22;4962;50.084;8.794;2022-08-21T05:10:44;22.20;99.90
9847;DHT22;4962;50.084;8.794;2022-08-21T05:13:12;22.30;99.90
9847;DHT22;4962;50.084;8.794;2022-08-21T05:15:40;22.40;99.90
9847;DHT22;4962;50.084;8.794;2022-08-21T05:18:07;22.50;99.90
9847;DHT22;4962;50.084;8.794;2022-08-21T05:20:36;22.50;99.90
9847;DHT22;4962;50.084;8.794;2022-08-21T05:23:07;22.60;99.90
9847;DHT22;4962;50.084;8.794;2022-08-21T05:25:34;22.70;99.90
9847;DHT22;4962;50.084;8.794;2022-08-21T05:28:01;22.80;99.90
9847;DHT22;4962;50.084;8.794;2022-08-21T05:30:28;22.80;99.90
9847;DHT22;4962;50.084;8.794;2022-08-21T05:32:57;22.90;99.90
9847;DHT22;4962;50.084;8.794;2022-08-21T05:35:25;23.00;99.90
9847;DHT22;4962;50.084;8.794;2022-08-21T05:37:53;23.10;99.90
9847;DHT22;4962;50.084;8.794;2022-08-21T05:40:20;23.40;99.90
9847;DHT22;4962;50.084;8.794;2022-08-21T05:42:48;23.70;99.90
9847;DHT22;4962;50.084;8.794;2022-08-21T05:45:15;24.10;99.90
9847;DHT22;4962;50.084;8.794;2022-08-21T05:47:42;24.40;99.90
9847;DHT22;4962;50.084;8.794;2022-08-21T05:50:09;24.90;99.90
9847;DHT22;4962;50.084;8.794;2022-08-21T05:52:36;25.30;99.90
9847;DHT22;4962;50.084;8.794;2022-08-21T05:55:05;25.80;99.90
9847;DHT22;4962;50.084;8.794;2022-08-21T05:57:32;26.20;99.90
9847;DHT22;4962;50.084;8.794;2022-08-21T05:59:59;26.60;99.90
9847;DHT22;4962;50.084;8.794;2022-08-21T06:02:26;27.10;99.90
9847;DHT22;4962;50.084;8.794;2022-08-21T06:04:52;27.40;99.80
9847;DHT22;4962;50.084;8.794;2022-08-21T06:07:19;27.80;98.70
9847;DHT22;4962;50.084;8.794;2022-08-21T06:09:46;28.20;97.60
9847;DHT22;4962;50.084;8.794;2022-08-21T06:12:15;28.60;96.60
9847;DHT22;4962;50.084;8.794;2022-08-21T06:14:42;28.90;95.80
9847;DHT22;4962;50.084;8.794;2022-08-21T06:17:11;29.30;95.00
9847;DHT22;4962;50.084;8.794;2022-08-21T06:19:39;29.70;94.10
9847;DHT22;4962;50.084;8.794;2022-08-21T06:22:06;30.00;93.10
9847;DHT22;4962;50.084;8.794;2022-08-21T06:24:33;30.30;92.30
9847;DHT22;4962;50.084;8.794;2022-08-21T06:27:04;30.60;91.50
9847;DHT22;4962;50.084;8.794;2022-08-21T06:29:33;31.00;90.60
9847;DHT22;4962;50.084;8.794;2022-08-21T06:32:02;31.30;89.50
9847;DHT22;4962;50.084;8.794;2022-08-21T06:34:29;31.60;87.50
9847;DHT22;4962;50.084;8.794;2022-08-21T06:36:55;31.80;85.00
9847;DHT22;4962;50.084;8.794;2022-08-21T06:39:22;32.10;83.10
9847;DHT22;4962;50.084;8.794;2022-08-21T06:41:49;32.40;81.30
9847;DHT22;4962;50.084;8.794;2022-08-21T06:44:17;32.60;79.40
9847;DHT22;4962;50.084;8.794;2022-08-21T06:46:45;32.80;77.80
9847;DHT22;4962;50.084;8.794;2022-08-21T06:49:12;33.00;76.90
9847;DHT22;4962;50.084;8.794;2022-08-21T06:51:39;33.20;75.90
9847;DHT22;4962;50.084;8.794;2022-08-21T06:54:07;33.50;74.80
9847;DHT22;4962;50.084;8.794;2022-08-21T06:56:34;33.70;73.70
9847;DHT22;4962;50.084;8.794;2022-08-21T06:59:03;33.90;72.00
9847;DHT22;4962;50.084;8.794;2022-08-21T07:01:30;34.10;70.50
9847;DHT22;4962;50.084;8.794;2022-08-21T07:03:59;34.40;69.70
9847;DHT22;4962;50.084;8.794;2022-08-21T07:06:26;34.60;69.10
9847;DHT22;4962;50.084;8.794;2022-08-21T07:08:52;34.90;68.80
9847;DHT22;4962;50.084;8.794;2022-08-21T07:11:22;35.10;67.90
9847;DHT22;4962;50.084;8.794;2022-08-21T07:13:50;35.40;67.00
9847;DHT22;4962;50.084;8.794;2022-08-21T07:16:19;35.70;65.80
9847;DHT22;4962;50.084;8.794;2022-08-21T07:18:46;36.00;64.10
9847;DHT22;4962;50.084;8.794;2022-08-21T07:21:16;36.20;63.30
9847;DHT22;4962;50.084;8.794;2022-08-21T07:23:46;36.50;62.20
9847;DHT22;4962;50.084;8.794;2022-08-21T07:26:14;36.70;60.80
9847;DHT22;4962;50.084;8.794;2022-08-21T07:28:41;37.00;59.90
9847;DHT22;4962;50.084;8.794;2022-08-21T07:31:10;37.30;59.40
9847;DHT22;4962;50.084;8.794;2022-08-21T07:33:40;37.50;58.20
9847;DHT22;4962;50.084;8.794;2022-08-21T07:36:07;37.80;57.30
9847;DHT22;4962;50.084;8.794;2022-08-21T07:38:36;38.00;56.70
9847;DHT22;4962;50.084;8.794;2022-08-21T07:41:09;38.20;55.80
9847;DHT22;4962;50.084;8.794;2022-08-21T07:43:37;38.40;55.00
9847;DHT22;4962;50.084;8.794;2022-08-21T07:46:04;38.70;54.60
9847;DHT22;4962;50.084;8.794;2022-08-21T07:48:31;38.90;53.90
9847;DHT22;4962;50.084;8.794;2022-08-21T07:51:00;39.10;53.10
9847;DHT22;4962;50.084;8.794;2022-08-21T07:53:29;39.40;52.50
9847;DHT22;4962;50.084;8.794;2022-08-21T07:55:58;39.60;51.80
9847;DHT22;4962;50.084;8.794;2022-08-21T07:58:25;39.70;50.80
9847;DHT22;4962;50.084;8.794;2022-08-21T08:00:52;39.80;49.70
9847;DHT22;4962;50.084;8.794;2022-08-21T08:03:19;39.70;48.70
9847;DHT22;4962;50.084;8.794;2022-08-21T08:05:46;39.60;48.10
9847;DHT22;4962;50.084;8.794;2022-08-21T08:08:13;39.40;47.60
9847;DHT22;4962;50.084;8.794;2022-08-21T08:10:40;39.40;47.30
9847;DHT22;4962;50.084;8.794;2022-08-21T08:13:09;39.10;47.00
9847;DHT22;4962;50.084;8.794;2022-08-21T08:15:37;39.00;47.50
9847;DHT22;4962;50.084;8.794;2022-08-21T08:18:04;38.90;47.50
9847;DHT22;4962;50.084;8.794;2022-08-21T08:20:32;38.80;47.00
9847;DHT22;4962;50.084;8.794;2022-08-21T08:22:59;38.50;46.40
9847;DHT22;4962;50.084;8.794;2022-08-21T08:25:27;37.90;45.90
9847;DHT22;4962;50.084;8.794;2022-08-21T08:27:54;37.40;46.00
9847;DHT22;4962;50.084;8.794;2022-08-21T08:30:22;36.80;46.10
9847;DHT22;4962;50.084;8.794;2022-08-21T08:32:50;36.10;45.80
9847;DHT22;4962;50.084;8.794;2022-08-21T08:35:17;35.50;46.50
9847;DHT22;4962;50.084;8.794;2022-08-21T08:37:44;34.90;46.90
9847;DHT22;4962;50.084;8.794;2022-08-21T08:40:14;34.30;47.60
9847;DHT22;4962;50.084;8.794;2022-08-21T08:42:46;33.80;48.80
9847;DHT22;4962;50.084;8.794;2022-08-21T08:45:18;33.30;49.70
9847;DHT22;4962;50.084;8.794;2022-08-21T08:47:49;32.90;50.50
9847;DHT22;4962;50.084;8.794;2022-08-21T08:50:19;32.50;51.00
9847;DHT22;4962;50.084;8.794;2022-08-21T08:52:51;32.10;51.80
9847;DHT22;4962;50.084;8.794;2022-08-21T08:55:21;31.90;52.50
9847;DHT22;4962;50.084;8.794;2022-08-21T08:57:51;31.60;53.00
9847;DHT22;4962;50.084;8.794;2022-08-21T09:00:20;31.30;52.90
9847;DHT22;4962;50.084;8.794;2022-08-21T09:02:53;31.10;53.20
9847;DHT22;4962;50.084;8.794;2022-08-21T09:05:22;30.80;53.30
9847;DHT22;4962;50.084;8.794;2022-08-21T09:08:09;30.60;53.80
9847;DHT22;4962;50.084;8.794;2022-08-21T09:10:48;30.30;54.20
9847;DHT22;4962;50.084;8.794;2022-08-21T09:13:29;30.10;54.80
9847;DHT22;4962;50.084;8.794;2022-08-21T09:16:05;29.90;55.40
9847;DHT22;4962;50.084;8.794;2022-08-21T09:18:44;29.70;55.70
9847;DHT22;4962;50.084;8.794;2022-08-21T09:21:37;29.60;55.80
9847;DHT22;4962;50.084;8.794;2022-08-21T09:24:18;29.50;55.90
9847;DHT22;4962;50.084;8.794;2022-08-21T09:26:57;29.30;56.40
9847;DHT22;4962;50.084;8.794;2022-08-21T09:29:27;29.30;56.70
9847;DHT22;4962;50.084;8.794;2022-08-21T09:31:55;29.20;56.70
9847;DHT22;4962;50.084;8.794;2022-08-21T09:34:27;29.10;57.00
9847;DHT22;4962;50.084;8.794;2022-08-21T09:36:55;29.10;57.40
9847;DHT22;4962;50.084;8.794;2022-08-21T09:39:24;29.00;57.50
9847;DHT22;4962;50.084;8.794;2022-08-21T09:41:56;28.90;57.30
9847;DHT22;4962;50.084;8.794;2022-08-21T09:44:26;28.90;57.30
9847;DHT22;4962;50.084;8.794;2022-08-21T09:46:53;28.70;57.60
9847;DHT22;4962;50.084;8.794;2022-08-21T09:49:28;28.60;58.20
9847;DHT22;4962;50.084;8.794;2022-08-21T09:51:56;28.60;58.00
9847;DHT22;4962;50.084;8.794;2022-08-21T09:54:30;28.50;58.00
9847;DHT22;4962;50.084;8.794;2022-08-21T09:56:58;28.40;58.40
9847;DHT22;4962;50.084;8.794;2022-08-21T09:59:45;28.30;58.60
9847;DHT22;4962;50.084;8.794;2022-08-21T10:02:23;28.20;59.00
9847;DHT22;4962;50.084;8.794;2022-08-21T10:04:53;28.20;59.60
9847;DHT22;4962;50.084;8.794;2022-08-21T10:07:23;28.10;60.00
9847;DHT22;4962;50.084;8.794;2022-08-21T10:10:03;28.10;60.70
9847;DHT22;4962;50.084;8.794;2022-08-21T10:12:39;28.10;60.80
9847;DHT22;4962;50.084;8.794;2022-08-21T10:15:15;28.10;60.60
9847;DHT22;4962;50.084;8.794;2022-08-21T10:17:50;28.00;60.40
9847;DHT22;4962;50.084;8.794;2022-08-21T10:20:23;27.90;60.50
9847;DHT22;4962;50.084;8.794;2022-08-21T10:23:03;27.90;61.20
9847;DHT22;4962;50.084;8.794;2022-08-21T10:25:40;27.90;61.80
9847;DHT22;4962;50.084;8.794;2022-08-21T10:28:13;27.90;61.60
9847;DHT22;4962;50.084;8.794;2022-08-21T10:30:48;27.90;62.80
9847;DHT22;4962;50.084;8.794;2022-08-21T10:33:30;27.90;61.60
9847;DHT22;4962;50.084;8.794;2022-08-21T10:36:06;27.80;61.30
9847;DHT22;4962;50.084;8.794;2022-08-21T10:39:03;27.80;62.10
9847;DHT22;4962;50.084;8.794;2022-08-21T10:41:45;27.80;62.70
9847;DHT22;4962;50.084;8.794;2022-08-21T10:44:23;27.80;62.60
9847;DHT22;4962;50.084;8.794;2022-08-21T10:46:57;27.80;62.60
9847;DHT22;4962;50.084;8.794;2022-08-21T10:49:35;27.80;62.30
9847;DHT22;4962;50.084;8.794;2022-08-21T10:52:28;27.70;61.70
9847;DHT22;4962;50.084;8.794;2022-08-21T10:55:00;27.70;62.10
9847;DHT22;4962;50.084;8.794;2022-08-21T10:57:36;27.70;62.40
9847;DHT22;4962;50.084;8.794;2022-08-21T11:00:19;27.70;62.30
9847;DHT22;4962;50.084;8.794;2022-08-21T11:02:53;27.60;62.50
9847;DHT22;4962;50.084;8.794;2022-08-21T11:05:27;27.60;61.90
9847;DHT22;4962;50.084;8.794;2022-08-21T11:08:02;27.60;61.40
9847;DHT22;4962;50.084;8.794;2022-08-21T11:10:34;27.60;61.90
9847;DHT22;4962;50.084;8.794;2022-08-21T11:13:06;27.60;62.20
9847;DHT22;4962;50.084;8.794;2022-08-21T11:15:45;27.60;61.90
9847;DHT22;4962;50.084;8.794;2022-08-21T11:18:22;27.60;61.70
9847;DHT22;4962;50.084;8.794;2022-08-21T11:20:58;27.60;62.60
9847;DHT22;4962;50.084;8.794;2022-08-21T11:23:33;27.70;62.30
9847;DHT22;4962;50.084;8.794;2022-08-21T11:26:07;27.70;62.60
9847;DHT22;4962;50.084;8.794;2022-08-21T11:28:38;27.70;62.90
9847;DHT22;4962;50.084;8.794;2022-08-21T11:31:20;27.80;63.20
9847;DHT22;4962;50.084;8.794;2022-08-21T11:34:02;27.90;63.50
9847;DHT22;4962;50.084;8.794;2022-08-21T11:36:42;27.90;63.40
9847;DHT22;4962;50.084;8.794;2022-08-21T11:39:16;28.00;63.10
9847;DHT22;4962;50.084;8.794;2022-08-21T11:41:58;28.00;63.20
9847;DHT22;4962;50.084;8.794;2022-08-21T11:44:40;28.10;63.50
9847;DHT22;4962;50.084;8.794;2022-08-21T11:47:15;28.10;63.60
9847;DHT22;4962;50.084;8.794;2022-08-21T11:50:02;28.20;64.30
9847;DHT22;4962;50.084;8.794;2022-08-21T11:52:35;28.20;63.20
9847;DHT22;4962;50.084;8.794;2022-08-21T11:55:09;28.30;62.60
9847;DHT22;4962;50.084;8.794;2022-08-21T11:57:42;28.30;61.70
9847;DHT22;4962;50.084;8.794;2022-08-21T12:00:16;28.40;61.40
9847;DHT22;4962;50.084;8.794;2022-08-21T12:02:47;28.30;61.10
9847;DHT22;4962;50.084;8.794;2022-08-21T12:05:28;28.40;61.10
9847;DHT22;4962;50.084;8.794;2022-08-21T12:08:05;28.40;60.80
9847;DHT22;4962;50.084;8.794;2022-08-21T12:10:36;28.40;60.80
9847;DHT22;4962;50.084;8.794;2022-08-21T12:13:07;28.40;60.80
9847;DHT22;4962;50.084;8.794;2022-08-21T12:15:36;28.40;60.40
9847;DHT22;4962;50.084;8.794;2022-08-21T12:18:06;28.50;60.40
9847;DHT22;4962;50.084;8.794;2022-08-21T12:20:39;28.50;59.90
9847;DHT22;4962;50.084;8.794;2022-08-21T12:23:25;28.50;59.90
9847;DHT22;4962;50.084;8.794;2022-08-21T12:26:18;28.40;59.90
9847;DHT22;4962;50.084;8.794;2022-08-21T12:28:48;28.40;59.90
9847;DHT22;4962;50.084;8.794;2022-08-21T12:31:25;28.30;59.70
9847;DHT22;4962;50.084;8.794;2022-08-21T12:33:56;28.30;59.80
9847;DHT22;4962;50.084;8.794;2022-08-21T12:36:39;28.30;60.00
9847;DHT22;4962;50.084;8.794;2022-08-21T12:39:12;28.20;60.40
9847;DHT22;4962;50.084;8.794;2022-08-21T12:41:45;28.20;60.70
9847;DHT22;4962;50.084;8.794;2022-08-21T12:44:15;28.10;60.50
9847;DHT22;4962;50.084;8.794;2022-08-21T12:46:48;28.10;60.50
9847;DHT22;4962;50.084;8.794;2022-08-21T12:49:19;28.10;60.80
9847;DHT22;4962;50.084;8.794;2022-08-21T12:51:59;28.10;61.00
9847;DHT22;4962;50.084;8.794;2022-08-21T12:54:30;28.10;61.10
9847;DHT22;4962;50.084;8.794;2022-08-21T12:57:00;28.10;61.30
9847;DHT22;4962;50.084;8.794;2022-08-21T12:59:28;28.10;61.00
9847;DHT22;4962;50.084;8.794;2022-08-21T13:01:58;28.10;60.80
9847;DHT22;4962;50.084;8.794;2022-08-21T13:04:35;28.10;60.80
9847;DHT22;4962;50.084;8.794;2022-08-21T13:07:07;28.10;60.70
9847;DHT22;4962;50.084;8.794;2022-08-21T13:09:40;28.10;60.90
9847;DHT22;4962;50.084;8.794;2022-08-21T13:12:10;28.00;60.90
9847;DHT22;4962;50.084;8.794;2022-08-21T13:14:39;28.00;60.80
9847;DHT22;4962;50.084;8.794;2022-08-21T13:17:07;28.00;61.20
9847;DHT22;4962;50.084;8.794;2022-08-21T13:19:34;28.00;61.30
9847;DHT22;4962;50.084;8.794;2022-08-21T13:22:18;28.10;61.30
9847;DHT22;4962;50.084;8.794;2022-08-21T13:24:47;28.10;61.40
9847;DHT22;4962;50.084;8.794;2022-08-21T13:27:29;28.10;61.20
9847;DHT22;4962;50.084;8.794;2022-08-21T13:30:08;28.20;60.90
9847;DHT22;4962;50.084;8.794;2022-08-21T13:32:40;28.20;60.40
9847;DHT22;4962;50.084;8.794;2022-08-21T13:35:09;28.20;60.30
9847;DHT22;4962;50.084;8.794;2022-08-21T13:37:39;28.20;61.10
9847;DHT22;4962;50.084;8.794;2022-08-21T13:40:09;28.20;60.40
9847;DHT22;4962;50.084;8.794;2022-08-21T13:42:41;28.20;60.50
9847;DHT22;4962;50.084;8.794;2022-08-21T13:45:21;28.30;60.50
9847;DHT22;4962;50.084;8.794;2022-08-21T13:47:48;28.30;60.40
9847;DHT22;4962;50.084;8.794;2022-08-21T13:50:18;28.30;60.10
9847;DHT22;4962;50.084;8.794;2022-08-21T13:52:48;28.30;59.70
9847;DHT22;4962;50.084;8.794;2022-08-21T13:55:17;28.40;59.80
9847;DHT22;4962;50.084;8.794;2022-08-21T13:57:46;28.40;60.00
9847;DHT22;4962;50.084;8.794;2022-08-21T14:00:16;28.40;59.80
9847;DHT22;4962;50.084;8.794;2022-08-21T14:02:46;28.50;60.10
9847;DHT22;4962;50.084;8.794;2022-08-21T14:05:20;28.50;60.00
9847;DHT22;4962;50.084;8.794;2022-08-21T14:07:50;28.60;59.90
9847;DHT22;4962;50.084;8.794;2022-08-21T14:10:20;28.70;59.90
9847;DHT22;4962;50.084;8.794;2022-08-21T14:12:51;28.80;59.80
9847;DHT22;4962;50.084;8.794;2022-08-21T14:15:25;28.90;59.60
9847;DHT22;4962;50.084;8.794;2022-08-21T14:17:54;28.90;59.60
9847;DHT22;4962;50.084;8.794;2022-08-21T14:20:30;28.90;59.50
9847;DHT22;4962;50.084;8.794;2022-08-21T14:22:58;28.90;59.00
9847;DHT22;4962;50.084;8.794;2022-08-21T14:25:31;28.90;59.30
9847;DHT22;4962;50.084;8.794;2022-08-21T14:28:13;29.00;58.60
9847;DHT22;4962;50.084;8.794;2022-08-21T14:30:42;29.00;58.40
9847;DHT22;4962;50.084;8.794;2022-08-21T14:33:12;29.00;58.30
9847;DHT22;4962;50.084;8.794;2022-08-21T14:35:40;29.00;58.40
9847;DHT22;4962;50.084;8.794;2022-08-21T14:38:12;29.10;58.50
9847;DHT22;4962;50.084;8.794;2022-08-21T14:40:41;29.10;58.50
9847;DHT22;4962;50.084;8.794;2022-08-21T14:43:10;29.10;58.60
9847;DHT22;4962;50.084;8.794;2022-08-21T14:45:37;29.10;58.20
9847;DHT22;4962;50.084;8.794;2022-08-21T14:48:07;29.10;58.00
9847;DHT22;4962;50.084;8.794;2022-08-21T14:50:34;29.10;57.70
9847;DHT22;4962;50.084;8.794;2022-08-21T14:53:01;29.10;57.20
9847;DHT22;4962;50.084;8.794;2022-08-21T14:55:30;29.10;57.00
9847;DHT22;4962;50.084;8.794;2022-08-21T14:58:19;29.10;57.00
9847;DHT22;4962;50.084;8.794;2022-08-21T15:00:48;29.20;56.90
9847;DHT22;4962;50.084;8.794;2022-08-21T15:03:15;29.30;56.80
9847;DHT22;4962;50.084;8.794;2022-08-21T15:05:42;29.30;56.30
9847;DHT22;4962;50.084;8.794;2022-08-21T15:08:10;29.40;55.80
9847;DHT22;4962;50.084;8.794;2022-08-21T15:10:37;29.40;55.80
9847;DHT22;4962;50.084;8.794;2022-08-21T15:13:04;29.50;56.80
9847;DHT22;4962;50.084;8.794;2022-08-21T15:15:37;29.50;55.90
9847;DHT22;4962;50.084;8.794;2022-08-21T15:18:05;29.50;55.80
9847;DHT22;4962;50.084;8.794;2022-08-21T15:20:32;29.60;55.80
9847;DHT22;4962;50.084;8.794;2022-08-21T15:22:59;29.60;56.30
9847;DHT22;4962;50.084;8.794;2022-08-21T15:25:27;29.60;56.40
9847;DHT22;4962;50.084;8.794;2022-08-21T15:27:54;29.60;56.30
9847;DHT22;4962;50.084;8.794;2022-08-21T15:30:22;29.60;56.40
9847;DHT22;4962;50.084;8.794;2022-08-21T15:32:50;29.60;56.10
9847;DHT22;4962;50.084;8.794;2022-08-21T15:35:18;29.70;56.00
9847;DHT22;4962;50.084;8.794;2022-08-21T15:37:44;29.70;55.80
9847;DHT22;4962;50.084;8.794;2022-08-21T15:40:11;29.70;55.70
9847;DHT22;4962;50.084;8.794;2022-08-21T15:42:40;29.70;55.20
9847;DHT22;4962;50.084;8.794;2022-08-21T15:45:09;29.70;55.60
9847;DHT22;4962;50.084;8.794;2022-08-21T15:47:37;29.70;55.70
9847;DHT22;4962;50.084;8.794;2022-08-21T15:50:08;29.70;55.20
9847;DHT22;4962;50.084;8.794;2022-08-21T15:52:35;29.70;55.10
9847;DHT22;4962;50.084;8.794;2022-08-21T15:55:02;29.70;54.90
9847;DHT22;4962;50.084;8.794;2022-08-21T15:57:30;29.60;55.00
9847;DHT22;4962;50.084;8.794;2022-08-21T15:59:58;29.60;55.40
9847;DHT22;4962;50.084;8.794;2022-08-21T16:02:33;29.60;55.80
9847;DHT22;4962;50.084;8.794;2022-08-21T16:05:00;29.50;56.20
9847;DHT22;4962;50.084;8.794;2022-08-21T16:07:28;29.40;56.60
9847;DHT22;4962;50.084;8.794;2022-08-21T16:09:55;29.30;56.40
9847;DHT22;4962;50.084;8.794;2022-08-21T16:12:27;29.30;56.40
9847;DHT22;4962;50.084;8.794;2022-08-21T16:14:56;29.30;56.60
9847;DHT22;4962;50.084;8.794;2022-08-21T16:17:28;29.20;56.60
9847;DHT22;4962;50.084;8.794;2022-08-21T16:19:55;29.20;56.80
9847;DHT22;4962;50.084;8.794;2022-08-21T16:22:23;29.20;56.90